createdAt,value
2023-02-02T00:01:15.767Z,5.57
2023-02-02T00:04:03.098Z,5.62
2023-02-02T00:06:49.666Z,5.56
2023-02-02T00:09:36.188Z,5.46
2023-02-02T00:12:22.267Z,5.30
2023-02-02T00:15:09.154Z,5.58
2023-02-02T00:17:55.657Z,5.26
2023-02-02T00:20:42.184Z,5.24
2023-02-02T00:23:28.548Z,5.41
2023-02-02T00:26:15.443Z,5.61
2023-02-02T00:29:02.429Z,5.42
2023-02-02T00:31:49.366Z,5.22
2023-02-02T00:34:35.611Z,5.45
2023-02-02T00:37:24.633Z,5.53
2023-02-02T00:40:11.921Z,5.26
2023-02-02T00:42:57.971Z,5.56
2023-02-02T00:45:44.678Z,5.36
2023-02-02T00:48:30.795Z,5.40
2023-02-02T00:51:17.325Z,5.38
2023-02-02T00:54:04.569Z,5.20
2023-02-02T00:56:50.951Z,5.07
2023-02-02T00:59:37.007Z,5.31
2023-02-02T01:02:23.667Z,5.45
2023-02-02T01:05:12.308Z,5.46
2023-02-02T01:07:58.729Z,5.29
2023-02-02T01:10:45.124Z,5.26
2023-02-02T01:13:32.004Z,5.19
2023-02-02T01:16:18.222Z,5.25
2023-02-02T01:19:04.864Z,5.01
2023-02-02T01:21:51.165Z,5.26
2023-02-02T01:24:39.764Z,5.25
2023-02-02T01:27:25.977Z,5.13
2023-02-02T01:30:13.309Z,5.32
2023-02-02T01:32:59.775Z,5.17
2023-02-02T01:35:53.223Z,5.04
2023-02-02T01:38:40.177Z,5.08
2023-02-02T01:41:27.210Z,5.31
2023-02-02T01:44:51.381Z,5.37
2023-02-02T01:47:43.838Z,5.37
2023-02-02T01:50:34.049Z,5.42
2023-02-02T01:53:20.882Z,5.26
2023-02-02T01:56:10.305Z,5.22
2023-02-02T01:58:58.514Z,5.05
2023-02-02T02:01:47.718Z,5.24
2023-02-02T02:04:35.033Z,5.11
2023-02-02T02:07:22.658Z,5.12
2023-02-02T02:10:09.730Z,5.12
2023-02-02T02:12:55.962Z,4.95
2023-02-02T02:16:19.808Z,5.19
2023-02-02T02:20:03.405Z,5.30
2023-02-02T02:23:10.537Z,5.31
2023-02-02T02:26:21.702Z,5.28
2023-02-02T02:29:21.932Z,4.95
2023-02-02T02:32:38.185Z,4.99
2023-02-02T02:35:56.450Z,5.21
2023-02-02T02:39:11.891Z,5.22
2023-02-02T02:42:04.223Z,5.17
2023-02-02T02:44:53.108Z,4.98
2023-02-02T02:47:42.381Z,5.15
2023-02-02T02:50:28.953Z,5.23
2023-02-02T02:53:20.312Z,5.35
2023-02-02T02:56:20.136Z,5.17
2023-02-02T02:59:36.291Z,5.40
2023-02-02T03:02:50.733Z,5.38
2023-02-02T03:06:08.260Z,5.39
2023-02-02T03:09:00.775Z,5.40
2023-02-02T03:11:47.042Z,5.21
2023-02-02T03:14:37.691Z,5.40
2023-02-02T03:17:24.190Z,5.14
2023-02-02T03:20:11.278Z,5.24
2023-02-02T03:22:57.464Z,5.38
2023-02-02T03:25:43.885Z,5.45
2023-02-02T03:28:31.758Z,5.33
2023-02-02T03:31:18.593Z,5.42
2023-02-02T03:34:04.982Z,5.35
2023-02-02T03:36:51.506Z,5.32
2023-02-02T03:39:37.939Z,5.42
2023-02-02T03:42:24.129Z,5.20
2023-02-02T03:45:10.753Z,5.50
2023-02-02T03:47:57.206Z,5.31
2023-02-02T03:50:43.272Z,5.36
2023-02-02T03:53:29.839Z,5.27
2023-02-02T03:56:16.497Z,5.30
2023-02-02T03:59:02.898Z,5.49
2023-02-02T04:01:49.380Z,5.51
2023-02-02T04:04:35.542Z,5.15
2023-02-02T04:07:21.866Z,5.52
2023-02-02T04:10:08.710Z,5.37
2023-02-02T04:12:54.887Z,5.31
2023-02-02T04:15:41.476Z,5.27
2023-02-02T04:18:28.791Z,5.42
2023-02-02T04:21:15.090Z,5.35
2023-02-02T04:24:01.582Z,5.55
2023-02-02T04:26:47.798Z,5.30
2023-02-02T04:29:33.905Z,5.42
2023-02-02T04:32:20.323Z,5.25
2023-02-02T04:35:07.542Z,5.46
2023-02-02T04:37:55.312Z,5.46
2023-02-02T04:40:43.910Z,5.60
2023-02-02T04:43:30.415Z,5.58
2023-02-02T04:46:16.942Z,5.45
2023-02-02T04:49:03.208Z,5.53
2023-02-02T04:51:50.509Z,5.47
2023-02-02T04:54:36.682Z,5.37
2023-02-02T04:57:23.082Z,5.40
2023-02-02T05:00:13.789Z,5.62
2023-02-02T05:03:00.950Z,5.58
2023-02-02T05:05:47.353Z,5.42
2023-02-02T05:08:34.808Z,5.49
2023-02-02T05:11:23.462Z,5.54
2023-02-02T05:14:10.315Z,5.33
2023-02-02T05:16:56.519Z,5.47
2023-02-02T05:19:43.230Z,5.51
2023-02-02T05:22:29.626Z,5.28
2023-02-02T05:25:18.625Z,5.45
2023-02-02T05:28:05.461Z,5.50
2023-02-02T05:30:53.041Z,5.57
2023-02-02T05:33:39.509Z,5.38
2023-02-02T05:36:25.732Z,5.40
2023-02-02T05:39:12.439Z,5.67
2023-02-02T05:41:58.854Z,5.57
2023-02-02T05:44:45.219Z,5.71
2023-02-02T05:47:31.497Z,5.69
2023-02-02T05:50:18.048Z,5.67
2023-02-02T05:53:04.602Z,5.46
2023-02-02T05:55:51.100Z,5.64
2023-02-02T05:58:37.475Z,5.64
2023-02-02T06:01:24.866Z,5.49
2023-02-02T06:04:11.509Z,5.47
2023-02-02T06:06:58.283Z,5.53
2023-02-02T06:09:44.507Z,5.48
2023-02-02T06:12:31.612Z,5.65
2023-02-02T06:15:18.185Z,5.41
2023-02-02T06:18:06.678Z,5.54
2023-02-02T06:20:59.773Z,5.58
2023-02-02T06:23:46.487Z,5.42
2023-02-02T06:26:33.051Z,5.43
2023-02-02T06:29:19.350Z,5.56
2023-02-02T06:32:05.809Z,5.36
2023-02-02T06:34:52.260Z,5.44
2023-02-02T06:37:39.286Z,5.64
2023-02-02T06:40:26.652Z,5.53
2023-02-02T06:43:15.430Z,5.60
2023-02-02T06:46:01.957Z,5.59
2023-02-02T06:48:48.643Z,5.37
2023-02-02T06:51:34.992Z,5.06
2023-02-02T06:54:21.311Z,5.51
2023-02-02T06:57:09.231Z,5.65
2023-02-02T06:59:55.946Z,5.66
2023-02-02T07:02:45.939Z,5.72
2023-02-02T07:05:32.277Z,5.70
2023-02-02T07:08:18.623Z,5.60
2023-02-02T07:11:12.672Z,5.62
2023-02-02T07:14:02.265Z,5.70
2023-02-02T07:16:48.672Z,5.70
2023-02-02T07:19:35.087Z,5.54
2023-02-02T07:22:21.722Z,5.65
2023-02-02T07:25:08.388Z,5.65
2023-02-02T07:27:54.979Z,5.61
2023-02-02T07:30:41.289Z,5.57
2023-02-02T07:33:27.717Z,5.55
2023-02-02T07:36:17.323Z,5.60
2023-02-02T07:39:05.007Z,5.74
2023-02-02T07:41:51.314Z,5.72
2023-02-02T07:44:49.595Z,5.69
2023-02-02T07:47:36.000Z,5.70
2023-02-02T07:50:22.265Z,5.57
2023-02-02T07:53:08.899Z,5.57
2023-02-02T07:56:15.282Z,5.80
2023-02-02T07:59:01.911Z,5.79
2023-02-02T08:01:48.531Z,5.80
2023-02-02T08:04:34.956Z,5.86
2023-02-02T08:07:24.533Z,5.77
2023-02-02T08:10:11.165Z,5.83
2023-02-02T08:12:57.534Z,5.76
2023-02-02T08:15:43.911Z,6.06
2023-02-02T08:18:30.119Z,6.00
2023-02-02T08:21:17.042Z,6.12
2023-02-02T08:24:05.113Z,6.12
2023-02-02T08:26:51.220Z,6.01
2023-02-02T08:29:39.101Z,6.05
2023-02-02T08:32:25.321Z,6.17
2023-02-02T08:35:11.653Z,5.89
2023-02-02T08:37:57.803Z,5.93
2023-02-02T08:40:44.397Z,5.91
2023-02-02T08:43:30.804Z,6.16
2023-02-02T08:46:19.275Z,6.14
2023-02-02T08:49:06.115Z,6.01
2023-02-02T08:51:52.375Z,6.09
2023-02-02T08:54:38.872Z,6.04
2023-02-02T08:57:25.231Z,6.04
2023-02-02T09:00:11.958Z,5.88
2023-02-02T09:02:58.400Z,6.11
2023-02-02T09:05:45.004Z,5.94
2023-02-02T09:08:33.395Z,6.03
2023-02-02T09:11:20.387Z,6.05
2023-02-02T09:14:07.014Z,5.90
2023-02-02T09:16:53.226Z,6.00
2023-02-02T09:19:39.471Z,5.98
2023-02-02T09:22:29.419Z,6.16
2023-02-02T09:25:16.404Z,6.15
2023-02-02T09:28:02.585Z,5.97
2023-02-02T09:30:49.035Z,6.11
2023-02-02T09:33:35.964Z,6.03
2023-02-02T09:36:23.786Z,6.07
2023-02-02T09:39:15.014Z,5.88
2023-02-02T09:42:21.838Z,6.14
2023-02-02T09:45:15.174Z,6.16
2023-02-02T09:48:23.447Z,6.07
2023-02-02T09:51:16.212Z,6.12
2023-02-02T09:54:18.129Z,6.31
2023-02-02T09:57:19.221Z,6.22
2023-02-02T10:00:16.080Z,6.33
2023-02-02T10:03:19.925Z,6.29
2023-02-02T10:06:31.804Z,6.26
2023-02-02T10:09:41.994Z,6.38
2023-02-02T10:12:41.388Z,6.30
2023-02-02T10:16:06.988Z,6.24
2023-02-02T10:19:02.068Z,6.11
2023-02-02T10:21:48.360Z,6.27
2023-02-02T10:24:35.971Z,6.17
2023-02-02T10:27:38.329Z,6.24
2023-02-02T10:30:55.596Z,6.20
2023-02-02T10:33:44.116Z,6.04
2023-02-02T10:36:53.198Z,6.28
2023-02-02T10:40:00.925Z,6.29
2023-02-02T10:43:46.155Z,6.29
2023-02-02T10:46:38.161Z,6.32
2023-02-02T10:49:32.920Z,6.52
2023-02-02T10:52:29.555Z,6.26
2023-02-02T10:55:33.225Z,6.51
2023-02-02T10:58:29.450Z,6.33
2023-02-02T11:01:18.029Z,6.41
2023-02-02T11:04:23.056Z,6.54
2023-02-02T11:07:13.148Z,6.44
2023-02-02T11:09:59.998Z,6.69
2023-02-02T11:12:53.000Z,6.71
2023-02-02T11:15:39.347Z,6.73
2023-02-02T11:18:30.607Z,6.85
2023-02-02T11:21:29.710Z,6.85
2023-02-02T11:24:26.765Z,6.77
2023-02-02T11:27:17.666Z,6.69
2023-02-02T11:30:34.072Z,6.66
2023-02-02T11:33:20.251Z,6.55
2023-02-02T11:36:19.688Z,6.45
2023-02-02T11:39:20.195Z,6.59
2023-02-02T11:42:14.747Z,6.29
2023-02-02T11:45:01.051Z,6.43
2023-02-02T11:47:47.339Z,6.55
2023-02-02T11:50:34.196Z,6.51
2023-02-02T11:53:22.305Z,6.57
2023-02-02T11:56:22.008Z,6.56
2023-02-02T11:59:35.123Z,6.38
2023-02-02T12:02:23.487Z,6.41
2023-02-02T12:05:10.038Z,6.36
2023-02-02T12:07:56.667Z,6.19
2023-02-02T12:11:00.038Z,6.32
2023-02-02T12:14:21.746Z,6.26
2023-02-02T12:17:26.532Z,6.22
2023-02-02T12:20:37.476Z,6.14
2023-02-02T12:24:05.399Z,6.09
2023-02-02T12:27:07.103Z,6.01
2023-02-02T12:30:09.467Z,5.86
2023-02-02T12:33:24.442Z,5.82
2023-02-02T12:36:20.110Z,6.05
2023-02-02T12:39:23.565Z,5.97
2023-02-02T12:42:35.971Z,6.19
2023-02-02T12:45:30.365Z,6.20
2023-02-02T12:48:16.769Z,6.20
2023-02-02T12:51:15.620Z,6.22
2023-02-02T12:54:33.772Z,6.29
2023-02-02T12:57:48.580Z,6.29
2023-02-02T13:00:43.768Z,6.32
2023-02-02T13:03:52.866Z,6.29
2023-02-02T13:06:52.681Z,6.30
2023-02-02T13:10:00.589Z,6.12
2023-02-02T13:12:53.234Z,6.34
2023-02-02T13:15:44.244Z,6.47
2023-02-02T13:18:36.461Z,6.33
2023-02-02T13:21:24.796Z,6.47
2023-02-02T13:24:19.356Z,6.34
2023-02-02T13:27:10.876Z,6.50
2023-02-02T13:30:25.693Z,6.60
2023-02-02T13:33:29.596Z,6.72
2023-02-02T13:36:29.349Z,6.77
2023-02-02T13:39:34.526Z,6.72
2023-02-02T13:42:43.918Z,6.70
2023-02-02T13:45:58.399Z,6.62
2023-02-02T13:48:55.266Z,6.66
2023-02-02T13:51:51.144Z,6.67
2023-02-02T13:54:56.103Z,6.64
2023-02-02T13:58:06.927Z,6.66
2023-02-02T14:01:00.171Z,6.53
2023-02-02T14:03:57.518Z,6.66
2023-02-02T14:06:57.128Z,6.59
2023-02-02T14:09:48.408Z,6.44
2023-02-02T14:12:36.319Z,6.54
2023-02-02T14:15:55.211Z,6.67
2023-02-02T14:19:02.955Z,6.65
2023-02-02T14:21:49.453Z,6.68
2023-02-02T14:24:35.650Z,6.71
2023-02-02T14:27:31.395Z,6.65
2023-02-02T14:30:24.871Z,6.71
2023-02-02T14:33:20.523Z,6.76
2023-02-02T14:36:13.787Z,6.73
2023-02-02T14:39:07.900Z,6.47
2023-02-02T14:42:42.776Z,6.68
2023-02-02T14:45:45.789Z,6.76
2023-02-02T14:48:33.675Z,6.74
2023-02-02T14:51:30.617Z,6.63
2023-02-02T14:54:27.894Z,6.77
2023-02-02T14:57:26.391Z,6.89
2023-02-02T15:00:35.069Z,6.90
2023-02-02T15:03:37.564Z,6.88
2023-02-02T15:06:42.360Z,6.89
2023-02-02T15:09:36.813Z,6.84
2023-02-02T15:12:38.669Z,6.94
2023-02-02T15:15:29.888Z,6.95
2023-02-02T15:18:25.267Z,6.69
2023-02-02T15:21:17.194Z,6.84
2023-02-02T15:24:04.776Z,6.75
2023-02-02T15:26:54.511Z,6.84
2023-02-02T15:29:45.809Z,6.74
2023-02-02T15:32:33.952Z,6.72
2023-02-02T15:35:25.916Z,6.72
2023-02-02T15:38:16.613Z,6.71
2023-02-02T15:41:12.482Z,6.63
2023-02-02T15:44:00.155Z,6.71
2023-02-02T15:46:48.090Z,6.46
2023-02-02T15:49:36.270Z,6.72
2023-02-02T15:52:27.190Z,6.57
2023-02-02T15:55:22.882Z,6.59
2023-02-02T15:58:28.746Z,6.74
2023-02-02T16:01:44.914Z,6.78
2023-02-02T16:04:38.517Z,6.71
2023-02-02T16:07:30.974Z,6.75
2023-02-02T16:10:21.407Z,6.59
2023-02-02T16:13:07.777Z,6.72
2023-02-02T16:15:59.075Z,6.78
2023-02-02T16:18:45.560Z,6.64
2023-02-02T16:21:33.351Z,6.54
2023-02-02T16:24:28.558Z,6.62
2023-02-02T16:27:19.358Z,6.61
2023-02-02T16:30:14.902Z,6.80
2023-02-02T16:33:30.509Z,6.75
2023-02-02T16:36:24.488Z,6.73
2023-02-02T16:39:22.376Z,6.72
2023-02-02T16:42:24.170Z,6.72
2023-02-02T16:45:50.920Z,6.61
2023-02-02T16:48:44.946Z,6.69
2023-02-02T16:51:34.064Z,6.61
2023-02-02T16:54:21.173Z,6.41
2023-02-02T16:57:13.123Z,6.58
2023-02-02T17:00:02.576Z,6.52
2023-02-02T17:02:53.300Z,6.58
2023-02-02T17:05:51.237Z,6.50
2023-02-02T17:08:40.414Z,6.31
2023-02-02T17:11:27.850Z,6.40
2023-02-02T17:14:26.841Z,6.34
2023-02-02T17:17:13.339Z,6.25
2023-02-02T17:19:59.695Z,6.16
2023-02-02T17:22:52.526Z,6.26
2023-02-02T17:25:43.167Z,6.10
2023-02-02T17:28:29.944Z,6.23
2023-02-02T17:31:16.820Z,6.16
2023-02-02T17:34:04.081Z,6.16
2023-02-02T17:36:51.163Z,6.25
2023-02-02T17:39:38.104Z,6.24
2023-02-02T17:42:27.279Z,6.25
2023-02-02T17:45:43.934Z,6.22
2023-02-02T17:48:30.284Z,5.86
2023-02-02T17:51:17.521Z,6.18
2023-02-02T17:54:10.117Z,5.89
2023-02-02T17:56:56.440Z,6.04
2023-02-02T17:59:42.935Z,6.18
2023-02-02T18:02:29.297Z,6.22
2023-02-02T18:05:16.735Z,6.21
2023-02-02T18:08:03.229Z,6.17
2023-02-02T18:10:49.800Z,6.12
2023-02-02T18:13:36.016Z,6.02
2023-02-02T18:16:22.516Z,6.05
2023-02-02T18:19:10.216Z,6.07
2023-02-02T18:21:56.707Z,6.10
2023-02-02T18:24:43.220Z,5.97
2023-02-02T18:27:29.743Z,6.06
2023-02-02T18:30:16.403Z,5.86
2023-02-02T18:33:02.737Z,5.95
2023-02-02T18:35:49.120Z,6.02
2023-02-02T18:38:35.655Z,5.95
2023-02-02T18:41:21.926Z,5.87
2023-02-02T18:44:08.176Z,5.90
2023-02-02T18:46:54.833Z,5.93
2023-02-02T18:49:41.102Z,5.88
2023-02-02T18:52:31.019Z,5.93
2023-02-02T18:55:17.757Z,6.00
2023-02-02T18:58:04.190Z,5.89
2023-02-02T19:00:51.061Z,5.73
2023-02-02T19:03:39.317Z,5.93
2023-02-02T19:06:46.079Z,6.10
2023-02-02T19:09:32.451Z,6.08
2023-02-02T19:12:18.825Z,5.92
2023-02-02T19:15:13.472Z,6.14
2023-02-02T19:17:59.788Z,6.14
2023-02-02T19:20:46.954Z,6.16
2023-02-02T19:23:34.101Z,5.99
2023-02-02T19:26:24.809Z,6.14
2023-02-02T19:29:18.450Z,6.11
2023-02-02T19:32:14.708Z,6.13
2023-02-02T19:35:01.989Z,5.99
2023-02-02T19:37:49.555Z,6.24
2023-02-02T19:40:36.395Z,6.20
2023-02-02T19:43:28.264Z,6.07
2023-02-02T19:46:22.542Z,6.23
2023-02-02T19:49:17.953Z,6.22
2023-02-02T19:52:14.584Z,6.03
2023-02-02T19:55:01.143Z,6.11
2023-02-02T19:57:47.403Z,6.02
2023-02-02T20:00:36.940Z,5.95
2023-02-02T20:03:27.229Z,6.10
2023-02-02T20:06:30.622Z,6.15
2023-02-02T20:09:19.999Z,5.99
2023-02-02T20:12:28.636Z,6.05
2023-02-02T20:15:32.251Z,6.00
2023-02-02T20:18:26.595Z,6.07
2023-02-02T20:21:34.334Z,6.04
2023-02-02T20:24:27.182Z,5.80
2023-02-02T20:27:17.916Z,5.79
2023-02-02T20:30:19.754Z,5.97
2023-02-02T20:33:22.560Z,5.86
2023-02-02T20:36:27.971Z,5.95
2023-02-02T20:39:26.414Z,5.96
2023-02-02T20:42:13.286Z,5.82
2023-02-02T20:44:59.890Z,5.74
2023-02-02T20:47:46.380Z,5.46
2023-02-02T20:50:32.785Z,5.96
2023-02-02T20:53:19.346Z,5.77
2023-02-02T20:56:06.033Z,5.88
2023-02-02T20:58:52.450Z,5.82
2023-02-02T21:01:38.901Z,6.02
2023-02-02T21:04:25.206Z,6.03
2023-02-02T21:07:11.378Z,5.93
2023-02-02T21:09:57.841Z,5.87
2023-02-02T21:12:44.208Z,6.16
2023-02-02T21:15:30.381Z,6.03
2023-02-02T21:18:16.626Z,6.18
2023-02-02T21:21:03.069Z,6.19
2023-02-02T21:23:51.488Z,6.28
2023-02-02T21:26:38.019Z,6.11
2023-02-02T21:29:25.352Z,6.08
2023-02-02T21:32:11.719Z,6.25
2023-02-02T21:34:58.894Z,6.33
2023-02-02T21:37:47.118Z,6.03
2023-02-02T21:40:34.658Z,6.12
2023-02-02T21:43:21.012Z,6.12
2023-02-02T21:46:28.879Z,6.43
2023-02-02T21:49:25.862Z,6.35
2023-02-02T21:52:16.197Z,6.45
2023-02-02T21:55:28.136Z,6.42
2023-02-02T21:58:27.636Z,6.44
2023-02-02T22:01:22.386Z,6.41
2023-02-02T22:04:29.119Z,6.31
2023-02-02T22:07:16.215Z,6.43
2023-02-02T22:10:20.744Z,6.17
2023-02-02T22:13:17.652Z,6.45
2023-02-02T22:16:13.819Z,6.12
2023-02-02T22:19:01.112Z,6.23
2023-02-02T22:21:47.288Z,6.25
2023-02-02T22:24:33.492Z,6.44
2023-02-02T22:27:24.150Z,6.11
2023-02-02T22:30:33.680Z,6.45
2023-02-02T22:33:20.199Z,6.52
2023-02-02T22:36:06.949Z,6.13
2023-02-02T22:38:53.250Z,6.48
2023-02-02T22:41:39.510Z,6.39
2023-02-02T22:44:25.824Z,6.26
2023-02-02T22:47:11.885Z,6.16
2023-02-02T22:49:58.427Z,6.32
2023-02-02T22:52:44.691Z,6.33
2023-02-02T22:55:31.715Z,6.14
2023-02-02T22:58:17.891Z,6.22
2023-02-02T23:01:04.966Z,6.21
2023-02-02T23:03:51.203Z,5.94
2023-02-02T23:06:37.604Z,6.11
2023-02-02T23:09:24.152Z,6.08
2023-02-02T23:12:10.741Z,6.10
2023-02-02T23:14:57.348Z,6.07
2023-02-02T23:17:44.178Z,6.13
2023-02-02T23:20:30.718Z,5.94
2023-02-02T23:23:17.146Z,6.17
2023-02-02T23:26:03.330Z,6.13
2023-02-02T23:28:49.826Z,6.10
2023-02-02T23:31:36.537Z,6.00
2023-02-02T23:34:23.059Z,6.03
2023-02-02T23:37:09.282Z,6.13
2023-02-02T23:39:55.521Z,6.27
2023-02-02T23:42:42.152Z,6.28
2023-02-02T23:45:28.292Z,6.24
2023-02-02T23:48:14.871Z,6.18
2023-02-02T23:51:01.831Z,5.95
2023-02-02T23:53:48.455Z,6.26
2023-02-02T23:56:34.872Z,6.10
2023-02-02T23:59:20.907Z,6.24
